createdAt,value
2019-05-17T00:00:37.719Z,2.50
2019-05-17T00:03:07.403Z,2.03
2019-05-17T00:05:37.663Z,2.40
2019-05-17T00:10:38.174Z,2.45
2019-05-17T00:13:12.738Z,2.70
2019-05-17T00:15:39.603Z,2.60
2019-05-17T00:18:26.314Z,2.95
2019-05-17T00:20:56.952Z,2.50
2019-05-17T00:23:26.936Z,2.50
2019-05-17T00:25:56.948Z,2.50
2019-05-17T00:28:27.275Z,2.35
2019-05-17T00:30:57.136Z,2.70
2019-05-17T00:33:27.201Z,2.40
2019-05-17T00:35:56.383Z,2.20
2019-05-17T00:38:27.217Z,2.50
2019-05-17T00:40:56.604Z,2.80
2019-05-17T00:43:26.533Z,2.10
2019-05-17T00:45:57.472Z,2.50
2019-05-17T00:48:26.940Z,2.30
2019-05-17T00:51:01.959Z,2.80
2019-05-17T00:53:27.133Z,2.90
2019-05-17T00:55:57.563Z,2.50
2019-05-17T00:58:26.770Z,2.90
2019-05-17T01:00:57.110Z,2.55
2019-05-17T01:03:27.518Z,2.70
2019-05-17T01:07:47.421Z,3.00
2019-05-17T01:10:17.453Z,2.70
2019-05-17T01:12:48.199Z,2.60
2019-05-17T01:15:18.462Z,2.50
2019-05-17T01:17:47.902Z,2.30
2019-05-17T01:20:17.537Z,2.50
2019-05-17T01:22:47.549Z,2.50
2019-05-17T01:25:17.307Z,2.10
2019-05-17T01:27:48.445Z,2.50
2019-05-17T01:30:17.747Z,2.30
2019-05-17T01:32:47.041Z,2.57
2019-05-17T01:35:16.816Z,2.60
2019-05-17T01:37:47.434Z,2.70
2019-05-17T01:40:17.825Z,2.85
2019-05-17T01:42:48.079Z,2.70
2019-05-17T01:45:17.760Z,3.00
2019-05-17T01:47:47.763Z,2.80
2019-05-17T01:50:17.850Z,2.70
2019-05-17T01:52:48.708Z,2.30
2019-05-17T01:55:19.423Z,2.35
2019-05-17T01:57:49.479Z,2.30
2019-05-17T02:02:48.937Z,2.50
2019-05-17T02:05:18.759Z,2.30
2019-05-17T02:07:49.332Z,2.60
2019-05-17T02:10:21.495Z,2.45
2019-05-17T02:12:51.203Z,2.70
2019-05-17T02:15:21.271Z,2.55
2019-05-17T02:17:51.426Z,2.65
2019-05-17T02:22:49.244Z,2.70
2019-05-17T02:25:18.752Z,2.30
2019-05-17T02:27:47.479Z,2.50
2019-05-17T02:30:22.980Z,2.40
2019-05-17T02:32:54.105Z,2.50
2019-05-17T02:35:23.649Z,2.60
2019-05-17T02:37:54.086Z,2.65
2019-05-17T02:40:24.117Z,2.30
2019-05-17T02:42:53.688Z,2.80
2019-05-17T02:45:23.574Z,2.70
2019-05-17T02:47:53.995Z,2.50
2019-05-17T02:53:04.467Z,2.50
2019-05-17T02:55:34.217Z,2.40
2019-05-17T02:58:04.184Z,2.55
2019-05-17T03:00:34.456Z,2.40
2019-05-17T03:03:04.567Z,2.60
2019-05-17T03:05:35.716Z,2.40
2019-05-17T03:08:04.782Z,2.90
2019-05-17T03:10:33.804Z,2.50
2019-05-17T03:13:04.495Z,2.40
2019-05-17T03:15:34.823Z,2.90
2019-05-17T03:18:04.204Z,2.70
2019-05-17T03:20:33.814Z,3.10
2019-05-17T03:23:04.543Z,2.90
2019-05-17T03:25:34.013Z,2.80
2019-05-17T03:30:37.235Z,3.00
2019-05-17T03:33:07.212Z,2.90
2019-05-17T03:35:37.350Z,2.75
2019-05-17T03:39:25.482Z,2.70
2019-05-17T03:44:08.776Z,3.00
2019-05-17T03:48:53.144Z,3.20
2019-05-17T03:51:23.250Z,2.90
2019-05-17T03:53:53.108Z,3.10
2019-05-17T03:56:22.413Z,2.50
2019-05-17T04:06:23.774Z,2.70
2019-05-17T04:08:54.260Z,2.50
2019-05-17T04:11:31.484Z,2.70
2019-05-17T04:13:54.791Z,2.90
2019-05-17T04:16:24.059Z,3.05
2019-05-17T04:18:53.603Z,3.00
2019-05-17T04:21:23.655Z,2.70
2019-05-17T04:23:53.840Z,2.95
2019-05-17T04:26:22.987Z,2.60
2019-05-17T04:28:53.288Z,3.00
2019-05-17T04:31:22.898Z,2.40
2019-05-17T04:33:53.724Z,2.70
2019-05-17T04:36:24.005Z,2.80
2019-05-17T04:38:54.428Z,3.10
2019-05-17T04:41:40.374Z,2.80
2019-05-17T04:46:25.348Z,3.35
2019-05-17T04:48:54.181Z,2.80
2019-05-17T04:51:24.165Z,2.80
2019-05-17T04:53:53.293Z,2.75
2019-05-17T04:56:23.247Z,3.10
2019-05-17T04:58:54.300Z,3.00
2019-05-17T05:01:23.534Z,3.20
2019-05-17T05:03:52.738Z,2.90
2019-05-17T05:06:23.353Z,2.70
2019-05-17T05:08:53.054Z,2.20
2019-05-17T05:11:23.499Z,2.60
2019-05-17T05:13:53.945Z,2.70
2019-05-17T05:16:22.790Z,2.70
2019-05-17T05:18:52.640Z,3.17
2019-05-17T05:21:23.051Z,2.70
2019-05-17T05:23:53.579Z,3.00
2019-05-17T05:26:23.961Z,3.20
2019-05-17T05:28:53.054Z,3.40
2019-05-17T05:31:22.948Z,3.30
2019-05-17T05:33:52.354Z,3.30
2019-05-17T05:36:22.148Z,3.30
2019-05-17T05:38:52.226Z,3.40
2019-05-17T05:43:52.660Z,3.00
2019-05-17T05:46:22.577Z,2.60
2019-05-17T05:48:53.023Z,2.50
2019-05-17T05:53:16.563Z,3.00
2019-05-17T05:55:45.916Z,2.50
2019-05-17T05:58:15.190Z,2.60
2019-05-17T06:00:45.095Z,2.85
2019-05-17T06:03:14.274Z,3.20
2019-05-17T06:05:44.811Z,3.20
2019-05-17T06:08:13.890Z,4.15
2019-05-17T06:10:44.011Z,3.60
2019-05-17T06:13:14.267Z,3.80
2019-05-17T06:15:43.434Z,3.40
2019-05-17T06:18:12.561Z,3.50
2019-05-17T06:20:42.120Z,2.90
2019-05-17T06:23:12.604Z,3.10
2019-05-17T06:30:43.169Z,2.70
2019-05-17T06:37:26.247Z,2.80
2019-05-17T06:39:55.882Z,3.10
2019-05-17T06:42:37.234Z,3.00
2019-05-17T06:44:56.713Z,2.70
2019-05-17T06:47:26.275Z,3.30
2019-05-17T06:49:56.162Z,3.20
2019-05-17T06:52:26.935Z,3.20
2019-05-17T06:54:56.148Z,3.50
2019-05-17T06:57:25.840Z,3.00
2019-05-17T06:59:54.263Z,3.50
2019-05-17T07:02:24.932Z,3.70
2019-05-17T07:04:56.355Z,2.75
2019-05-17T07:09:30.231Z,2.50
2019-05-17T07:12:00.498Z,3.60
2019-05-17T07:14:30.514Z,3.30
2019-05-17T07:16:59.701Z,3.00
2019-05-17T07:19:30.341Z,3.00
2019-05-17T07:22:00.074Z,2.80
2019-05-17T07:24:30.003Z,2.90
2019-05-17T07:26:59.456Z,2.70
2019-05-17T07:29:29.918Z,2.80
2019-05-17T07:32:00.374Z,2.70
2019-05-17T07:34:30.831Z,2.90
2019-05-17T07:37:01.189Z,2.30
2019-05-17T07:39:30.155Z,3.95
2019-05-17T07:41:59.950Z,3.27
2019-05-17T07:44:29.609Z,3.30
2019-05-17T07:47:00.127Z,4.00
2019-05-17T07:49:29.903Z,3.10
2019-05-17T07:52:00.718Z,3.50
2019-05-17T07:54:30.740Z,3.10
2019-05-17T07:57:00.335Z,3.10
2019-05-17T07:59:29.876Z,2.95
2019-05-17T08:01:59.682Z,2.90
2019-05-17T08:07:11.894Z,3.40
2019-05-17T08:09:41.403Z,3.70
2019-05-17T08:12:11.731Z,3.45
2019-05-17T08:14:46.436Z,3.10
2019-05-17T08:17:16.158Z,3.50
2019-05-17T08:19:45.589Z,3.80
2019-05-17T08:25:06.084Z,2.50
2019-05-17T08:27:36.593Z,2.70
2019-05-17T08:30:05.439Z,2.50
2019-05-17T08:32:35.823Z,2.75
2019-05-17T08:37:33.899Z,3.00
2019-05-17T08:42:33.705Z,3.70
2019-05-17T08:45:04.604Z,4.00
2019-05-17T08:50:03.170Z,3.45
2019-05-17T08:52:33.666Z,3.40
2019-05-17T08:55:03.036Z,2.60
2019-05-17T08:57:32.132Z,2.75
2019-05-17T09:00:02.184Z,2.60
2019-05-17T09:02:32.640Z,2.60
2019-05-17T09:05:03.595Z,2.65
2019-05-17T09:07:35.080Z,3.20
2019-05-17T09:10:05.455Z,4.00
2019-05-17T09:12:34.746Z,3.60
2019-05-17T09:15:04.026Z,3.60
2019-05-17T09:17:34.306Z,4.17
2019-05-17T09:20:05.510Z,6.85
2019-05-17T09:22:34.398Z,6.40
2019-05-17T09:25:04.144Z,7.00
2019-05-17T09:27:34.360Z,7.80
2019-05-17T09:30:04.454Z,7.20
2019-05-17T09:32:33.663Z,6.87
2019-05-17T09:35:03.041Z,6.80
2019-05-17T09:37:32.486Z,7.55
2019-05-17T09:40:02.386Z,8.05
2019-05-17T09:42:32.032Z,8.20
2019-05-17T09:45:03.266Z,10.60
2019-05-17T09:47:33.216Z,11.00
2019-05-17T09:52:13.270Z,7.55
2019-05-17T09:54:45.349Z,8.40
2019-05-17T09:57:13.242Z,6.60
2019-05-17T09:59:42.163Z,8.50
2019-05-17T10:02:10.030Z,7.30
2019-05-17T10:04:39.522Z,7.10
2019-05-17T10:07:10.001Z,6.05
2019-05-17T10:09:40.011Z,10.67
2019-05-17T10:12:09.538Z,8.65
2019-05-17T10:14:37.819Z,7.90
2019-05-17T10:17:05.512Z,6.50
2019-05-17T10:19:33.213Z,7.07
2019-05-17T10:22:00.797Z,5.57
2019-05-17T10:24:37.911Z,5.53
2019-05-17T10:26:59.548Z,7.60
2019-05-17T10:29:26.753Z,7.70
2019-05-17T10:31:55.100Z,6.63
2019-05-17T10:34:22.575Z,5.80
2019-05-17T10:36:50.879Z,5.65
2019-05-17T10:39:19.370Z,5.77
2019-05-17T10:41:50.059Z,5.30
2019-05-17T10:44:19.873Z,7.70
2019-05-17T10:46:47.315Z,5.25
2019-05-17T10:49:15.532Z,6.90
2019-05-17T10:51:43.381Z,6.50
2019-05-17T10:54:11.653Z,6.10
2019-05-17T10:56:39.117Z,8.00
2019-05-17T10:59:06.323Z,8.20
2019-05-17T11:01:33.896Z,5.35
2019-05-17T11:04:01.150Z,4.35
2019-05-17T11:06:30.245Z,4.33
2019-05-17T11:08:59.480Z,5.70
2019-05-17T11:11:27.121Z,6.20
2019-05-17T11:13:54.484Z,7.63
2019-05-17T11:16:22.102Z,7.15
2019-05-17T11:18:49.435Z,6.07
2019-05-17T11:21:16.615Z,6.90
2019-05-17T11:24:02.934Z,8.30
2019-05-17T11:26:31.203Z,5.03
2019-05-17T11:28:59.294Z,5.70
2019-05-17T11:31:26.507Z,6.00
2019-05-17T11:33:53.812Z,6.10
2019-05-17T11:36:21.179Z,6.63
2019-05-17T11:38:48.428Z,5.90
2019-05-17T11:41:20.914Z,5.77
2019-05-17T11:43:45.396Z,5.13
2019-05-17T11:46:13.450Z,6.00
2019-05-17T11:48:40.670Z,5.00
2019-05-17T11:51:07.946Z,4.90
2019-05-17T11:53:35.234Z,5.40
2019-05-17T11:56:02.478Z,5.30
2019-05-17T11:58:31.004Z,5.30
2019-05-17T12:00:59.341Z,5.65
2019-05-17T12:03:27.055Z,7.33
2019-05-17T12:05:54.397Z,5.40
2019-05-17T12:10:44.437Z,5.60
2019-05-17T12:13:12.693Z,6.47
2019-05-17T12:15:45.500Z,6.10
2019-05-17T12:18:11.690Z,6.80
2019-05-17T12:20:39.976Z,6.10
2019-05-17T12:23:07.406Z,4.80
2019-05-17T12:25:34.757Z,4.23
2019-05-17T12:28:02.177Z,4.00
2019-05-17T12:30:29.588Z,3.87
2019-05-17T12:32:56.890Z,3.58
2019-05-17T12:35:27.569Z,3.67
2019-05-17T12:37:54.918Z,4.23
2019-05-17T12:40:22.692Z,3.83
2019-05-17T12:42:51.497Z,3.80
2019-05-17T12:45:18.918Z,3.90
2019-05-17T12:47:46.104Z,4.17
2019-05-17T12:50:13.743Z,3.90
2019-05-17T12:52:41.715Z,3.30
2019-05-17T12:55:10.055Z,4.00
2019-05-17T12:57:38.089Z,4.10
2019-05-17T13:00:06.124Z,3.83
2019-05-17T13:02:33.722Z,3.70
2019-05-17T13:05:00.979Z,3.80
2019-05-17T13:07:29.222Z,3.70
2019-05-17T13:09:57.713Z,3.40
2019-05-17T13:12:25.665Z,3.40
2019-05-17T13:14:53.997Z,3.50
2019-05-17T13:17:21.920Z,3.70
2019-05-17T13:19:49.958Z,3.80
2019-05-17T13:22:17.329Z,4.13
2019-05-17T13:24:45.210Z,3.30
2019-05-17T13:27:13.189Z,3.60
2019-05-17T13:29:40.622Z,3.30
2019-05-17T13:32:08.386Z,3.40
2019-05-17T13:34:36.447Z,3.20
2019-05-17T13:37:03.697Z,3.13
2019-05-17T13:39:31.363Z,3.20
2019-05-17T13:41:59.622Z,2.90
2019-05-17T13:44:27.663Z,3.00
2019-05-17T13:46:56.285Z,3.45
2019-05-17T13:49:27.023Z,3.40
2019-05-17T13:51:56.389Z,3.20
2019-05-17T13:54:24.582Z,3.50
2019-05-17T13:59:23.463Z,2.80
2019-05-17T14:01:53.028Z,3.50
2019-05-17T14:04:22.717Z,3.20
2019-05-17T14:06:53.162Z,3.15
2019-05-17T14:09:23.185Z,3.50
2019-05-17T14:11:54.020Z,3.60
2019-05-17T14:14:22.299Z,4.30
2019-05-17T14:19:21.561Z,4.55
2019-05-17T14:24:19.284Z,3.80
2019-05-17T14:29:18.878Z,3.50
2019-05-17T14:32:08.608Z,3.60
2019-05-17T14:34:37.763Z,4.15
2019-05-17T14:37:07.784Z,4.60
2019-05-17T14:39:37.264Z,4.00
2019-05-17T14:44:36.274Z,3.45
2019-05-17T14:47:05.356Z,3.70
2019-05-17T14:49:35.968Z,3.30
2019-05-17T14:52:05.559Z,3.15
2019-05-17T14:54:35.654Z,3.30
2019-05-17T14:58:36.170Z,3.30
2019-05-17T15:01:05.453Z,3.05
2019-05-17T15:03:35.563Z,3.40
2019-05-17T15:06:05.061Z,3.20
2019-05-17T15:11:03.843Z,4.30
2019-05-17T15:16:03.032Z,3.20
2019-05-17T15:21:00.247Z,3.20
2019-05-17T15:23:29.129Z,2.90
2019-05-17T15:25:58.951Z,3.40
2019-05-17T15:28:29.902Z,2.95
2019-05-17T15:30:59.264Z,3.40
2019-05-17T15:33:27.810Z,3.60
2019-05-17T15:35:58.259Z,3.30
2019-05-17T15:38:27.961Z,3.80
2019-05-17T15:40:58.269Z,3.55
2019-05-17T15:43:28.140Z,3.70
2019-05-17T15:45:58.531Z,3.40
2019-05-17T15:48:27.976Z,3.90
2019-05-17T15:50:57.300Z,3.30
2019-05-17T15:58:23.547Z,3.10
2019-05-17T16:00:53.592Z,3.35
2019-05-17T16:03:22.670Z,3.10
2019-05-17T16:05:52.670Z,2.70
2019-05-17T16:08:22.566Z,2.95
2019-05-17T16:10:51.236Z,3.10
2019-05-17T16:13:56.318Z,3.10
2019-05-17T16:16:26.833Z,2.70
2019-05-17T16:18:57.210Z,2.10
2019-05-17T16:21:26.683Z,2.75
2019-05-17T16:23:56.421Z,3.00
2019-05-17T16:26:26.093Z,3.00
2019-05-17T16:28:56.849Z,2.60
2019-05-17T16:33:54.674Z,2.50
2019-05-17T16:36:24.745Z,3.20
2019-05-17T16:38:53.937Z,2.90
2019-05-17T16:44:07.539Z,2.40
2019-05-17T16:46:37.369Z,2.80
2019-05-17T16:49:06.877Z,2.30
2019-05-17T16:51:36.427Z,2.40
2019-05-17T16:54:05.110Z,2.10
2019-05-17T17:01:34.739Z,2.00
2019-05-17T17:04:05.360Z,2.30
2019-05-17T17:06:34.750Z,2.00
2019-05-17T17:09:05.187Z,2.30
2019-05-17T17:11:35.327Z,2.10
2019-05-17T17:14:03.680Z,2.05
2019-05-17T17:16:34.112Z,2.15
2019-05-17T17:19:03.625Z,2.00
2019-05-17T17:21:33.312Z,2.40
2019-05-17T17:24:02.489Z,2.40
2019-05-17T17:26:32.220Z,2.70
2019-05-17T17:29:01.316Z,2.53
2019-05-17T17:31:31.094Z,2.50
2019-05-17T17:33:59.710Z,2.10
2019-05-17T17:36:29.712Z,2.20
2019-05-17T17:38:59.615Z,1.85
2019-05-17T17:41:29.258Z,2.30
2019-05-17T17:43:59.503Z,2.20
2019-05-17T17:46:28.793Z,2.50
2019-05-17T17:51:25.982Z,2.30
2019-05-17T17:53:55.012Z,2.40
2019-05-17T17:56:24.496Z,2.10
2019-05-17T17:58:53.888Z,2.10
2019-05-17T18:01:23.200Z,2.37
2019-05-17T18:03:52.387Z,2.50
2019-05-17T18:06:22.952Z,2.35
2019-05-17T18:08:53.060Z,2.30
2019-05-17T18:11:22.384Z,2.60
2019-05-17T18:13:52.927Z,2.40
2019-05-17T18:16:22.045Z,2.40
2019-05-17T18:18:53.006Z,2.10
2019-05-17T18:23:50.915Z,2.10
2019-05-17T18:26:21.353Z,1.90
2019-05-17T18:28:51.280Z,2.10
2019-05-17T18:31:21.391Z,2.30
2019-05-17T18:33:50.564Z,2.40
2019-05-17T18:36:20.073Z,2.15
2019-05-17T18:38:51.435Z,1.70
2019-05-17T18:41:20.912Z,2.50
2019-05-17T18:43:50.094Z,2.20
2019-05-17T18:46:19.370Z,2.10
2019-05-17T18:48:48.450Z,2.10
2019-05-17T18:51:17.165Z,2.05
2019-05-17T18:53:47.391Z,2.10
2019-05-17T18:56:17.346Z,2.10
2019-05-17T18:58:46.711Z,2.05
2019-05-17T19:01:15.326Z,2.00
2019-05-17T19:03:44.597Z,2.25
2019-05-17T19:06:14.626Z,2.70
2019-05-17T19:08:44.414Z,1.60
2019-05-17T19:11:14.150Z,2.00
2019-05-17T19:13:44.238Z,2.10
2019-05-17T19:16:15.439Z,1.80
2019-05-17T19:18:46.161Z,1.80
2019-05-17T19:21:15.746Z,2.10
2019-05-17T19:23:45.365Z,2.10
2019-05-17T19:26:15.138Z,2.30
2019-05-17T19:28:45.601Z,2.13
2019-05-17T19:31:14.687Z,2.30
2019-05-17T19:33:43.875Z,2.50
2019-05-17T19:36:13.495Z,2.25
2019-05-17T19:38:42.419Z,2.40
2019-05-17T19:41:11.486Z,2.10
2019-05-17T19:43:41.172Z,2.00
2019-05-17T19:50:29.013Z,2.00
2019-05-17T19:52:58.430Z,2.20
2019-05-17T19:55:28.081Z,2.20
2019-05-17T19:57:57.853Z,2.30
2019-05-17T20:00:26.603Z,2.10
2019-05-17T20:02:56.841Z,2.20
2019-05-17T20:05:26.743Z,2.00
2019-05-17T20:07:58.258Z,2.30
2019-05-17T20:10:28.880Z,2.10
2019-05-17T20:12:58.054Z,2.10
2019-05-17T20:15:34.583Z,2.30
2019-05-17T20:19:11.747Z,1.65
2019-05-17T20:21:41.612Z,2.20
2019-05-17T20:24:10.720Z,2.30
2019-05-17T20:26:39.710Z,2.00
2019-05-17T20:29:11.075Z,2.15
2019-05-17T20:31:41.472Z,2.30
2019-05-17T20:34:11.324Z,2.17
2019-05-17T20:36:41.131Z,2.20
2019-05-17T20:39:10.609Z,2.40
2019-05-17T20:41:39.087Z,2.75
2019-05-17T20:44:09.209Z,2.10
2019-05-17T20:46:38.601Z,2.20
2019-05-17T20:51:50.198Z,2.20
2019-05-17T20:54:20.879Z,2.05
2019-05-17T20:56:52.423Z,2.03
2019-05-17T21:01:51.709Z,2.40
2019-05-17T21:04:21.113Z,2.20
2019-05-17T21:06:51.205Z,2.20
2019-05-17T21:09:22.317Z,2.00
2019-05-17T21:11:50.814Z,2.70
2019-05-17T21:14:20.600Z,2.60
2019-05-17T21:16:51.035Z,2.30
2019-05-17T21:19:20.441Z,2.10
2019-05-17T21:21:52.565Z,2.30
2019-05-17T21:24:22.210Z,2.20
2019-05-17T21:26:52.449Z,2.20
2019-05-17T21:29:22.174Z,2.50
2019-05-17T21:31:53.007Z,2.00
2019-05-17T21:34:23.600Z,2.20
2019-05-17T21:36:52.608Z,2.40
2019-05-17T21:39:22.486Z,2.20
2019-05-17T21:44:20.651Z,2.40
2019-05-17T21:47:03.773Z,2.20
2019-05-17T21:51:51.708Z,2.30
2019-05-17T21:54:22.526Z,2.30
2019-05-17T21:56:53.102Z,2.35
2019-05-17T21:59:23.492Z,2.50
2019-05-17T22:01:52.997Z,2.00
2019-05-17T22:04:26.729Z,2.40
2019-05-17T22:06:56.311Z,2.70
2019-05-17T22:09:26.445Z,2.00
2019-05-17T22:11:59.514Z,2.30
2019-05-17T22:14:30.167Z,2.30
2019-05-17T22:17:00.484Z,2.33
2019-05-17T22:19:30.260Z,2.30
2019-05-17T22:22:00.547Z,2.23
2019-05-17T22:25:51.251Z,2.40
2019-05-17T22:30:50.751Z,2.33
2019-05-17T22:33:21.226Z,2.70
2019-05-17T22:35:51.276Z,2.50
2019-05-17T22:42:22.935Z,2.40
2019-05-17T22:49:59.203Z,2.50
2019-05-17T22:52:28.785Z,2.45
2019-05-17T22:54:59.785Z,2.40
2019-05-17T22:57:30.160Z,2.20
2019-05-17T23:00:00.829Z,2.30
2019-05-17T23:02:30.680Z,2.25
2019-05-17T23:05:01.969Z,2.20
2019-05-17T23:07:31.989Z,2.20
2019-05-17T23:10:02.329Z,2.20
2019-05-17T23:12:32.343Z,2.20
2019-05-17T23:15:02.963Z,2.20
2019-05-17T23:17:34.344Z,2.35
2019-05-17T23:20:05.915Z,2.40
2019-05-17T23:22:36.964Z,2.57
2019-05-17T23:25:06.089Z,2.50
2019-05-17T23:27:34.628Z,2.30
2019-05-17T23:30:05.764Z,2.30
2019-05-17T23:32:36.106Z,2.20
2019-05-17T23:35:06.484Z,2.10
2019-05-17T23:37:35.779Z,1.95
2019-05-17T23:40:06.011Z,2.20
2019-05-17T23:42:35.481Z,2.25
2019-05-17T23:45:05.666Z,2.25
2019-05-17T23:47:35.242Z,2.50
2019-05-17T23:50:05.375Z,2.30
2019-05-17T23:52:35.310Z,2.20
2019-05-17T23:55:04.922Z,2.10
2019-05-17T23:57:34.369Z,2.85
